Akwesasne, New York
Current Conditions -  °F | °C
As of 4:53 AM on Tuesday 27 Jan 2015 (Local Time) from KMSS Reporting Station
Clear Clear  
Wind Chill: -12°   Ceiling: Unl
Heat Index:   Visibility: 10mi
Dew Point: -4°   Wind: 15mph
Humidity: 63%   Direction: 50°NE
Pressure: 30.07"   Gusts: NA
Location:  44.9835°N, 74.6107°W
Report Text: KMSS 270953Z AUTO 05013KT 10SM CLR M14/M20 A3007 RMK AO2 SLP193 T11441200
Loading
Personal Weather Stations






























Interactive Weather Map New forecast layout! Learn more

10-Day Weather Forecast

Advertisements
Track Severe Weather on mobile